sensor_id;sensor_type;location;lat;lon;timestamp;P1;durP1;ratioP1;P2;durP2;ratioP2
76846;SDS011;65813;49.546;8.644;2024-01-30T04:45:43;8.55;;;5.13;;
76846;SDS011;65813;49.546;8.644;2024-01-30T04:49:44;9.30;;;5.60;;
76846;SDS011;65813;49.546;8.644;2024-01-30T04:53:44;8.20;;;5.07;;
76846;SDS011;65813;49.546;8.644;2024-01-30T04:57:44;9.33;;;4.77;;
76846;SDS011;65813;49.546;8.644;2024-01-30T05:01:45;8.83;;;5.03;;
76846;SDS011;65813;49.546;8.644;2024-01-30T05:05:45;12.30;;;5.70;;
76846;SDS011;65813;49.546;8.644;2024-01-30T05:09:45;8.70;;;4.70;;
76846;SDS011;65813;49.546;8.644;2024-01-30T05:13:46;8.57;;;5.63;;
76846;SDS011;65813;49.546;8.644;2024-01-30T05:17:46;8.20;;;5.20;;
76846;SDS011;65813;49.546;8.644;2024-01-30T05:21:46;10.37;;;5.60;;
76846;SDS011;65813;49.546;8.644;2024-01-30T05:25:46;8.77;;;5.13;;
76846;SDS011;65813;49.546;8.644;2024-01-30T05:29:47;10.67;;;5.77;;
76846;SDS011;65813;49.546;8.644;2024-01-30T05:33:47;10.13;;;5.23;;
76846;SDS011;65813;49.546;8.644;2024-01-30T05:37:48;8.63;;;5.50;;
76846;SDS011;65813;49.546;8.644;2024-01-30T05:41:49;9.30;;;6.03;;
76846;SDS011;65813;49.546;8.644;2024-01-30T05:45:50;11.47;;;5.67;;
76846;SDS011;65813;49.546;8.644;2024-01-30T05:49:51;10.55;;;6.18;;
76846;SDS011;65813;49.546;8.644;2024-01-30T05:53:52;10.63;;;6.47;;
76846;SDS011;65813;49.546;8.644;2024-01-30T05:57:52;12.17;;;6.80;;
76846;SDS011;65813;49.546;8.644;2024-01-30T06:01:52;11.48;;;6.35;;
76846;SDS011;65813;49.546;8.644;2024-01-30T06:05:54;9.93;;;6.80;;
76846;SDS011;65813;49.546;8.644;2024-01-30T06:09:55;11.60;;;6.40;;
76846;SDS011;65813;49.546;8.644;2024-01-30T06:13:55;9.87;;;6.00;;
76846;SDS011;65813;49.546;8.644;2024-01-30T06:17:56;8.87;;;5.97;;
76846;SDS011;65813;49.546;8.644;2024-01-30T06:21:56;10.68;;;6.32;;
76846;SDS011;65813;49.546;8.644;2024-01-30T06:25:56;11.40;;;6.13;;
76846;SDS011;65813;49.546;8.644;2024-01-30T06:29:57;10.67;;;6.57;;
76846;SDS011;65813;49.546;8.644;2024-01-30T06:33:57;13.80;;;6.83;;
76846;SDS011;65813;49.546;8.644;2024-01-30T06:37:57;12.47;;;6.20;;
76846;SDS011;65813;49.546;8.644;2024-01-30T06:41:58;10.97;;;5.33;;
76846;SDS011;65813;49.546;8.644;2024-01-30T06:45:58;12.10;;;6.07;;
76846;SDS011;65813;49.546;8.644;2024-01-30T06:49:59;12.93;;;6.88;;
76846;SDS011;65813;49.546;8.644;2024-01-30T06:53:59;14.75;;;6.72;;
76846;SDS011;65813;49.546;8.644;2024-01-30T06:58:01;16.85;;;8.07;;
76846;SDS011;65813;49.546;8.644;2024-01-30T07:02:01;15.27;;;8.00;;
76846;SDS011;65813;49.546;8.644;2024-01-30T07:06:02;12.15;;;7.93;;
76846;SDS011;65813;49.546;8.644;2024-01-30T07:10:02;12.57;;;7.47;;
76846;SDS011;65813;49.546;8.644;2024-01-30T07:14:26;14.73;;;7.32;;
76846;SDS011;65813;49.546;8.644;2024-01-30T07:18:39;11.77;;;6.60;;
76846;SDS011;65813;49.546;8.644;2024-01-30T07:22:40;10.20;;;6.80;;
76846;SDS011;65813;49.546;8.644;2024-01-30T07:26:40;16.15;;;8.27;;
76846;SDS011;65813;49.546;8.644;2024-01-30T07:30:41;11.33;;;7.27;;
76846;SDS011;65813;49.546;8.644;2024-01-30T07:34:41;12.97;;;7.43;;
76846;SDS011;65813;49.546;8.644;2024-01-30T07:38:41;11.30;;;6.33;;
76846;SDS011;65813;49.546;8.644;2024-01-30T07:42:42;12.40;;;7.43;;
76846;SDS011;65813;49.546;8.644;2024-01-30T07:46:42;13.30;;;7.77;;
76846;SDS011;65813;49.546;8.644;2024-01-30T07:50:42;13.87;;;7.43;;
76846;SDS011;65813;49.546;8.644;2024-01-30T07:54:43;11.52;;;6.90;;
76846;SDS011;65813;49.546;8.644;2024-01-30T07:58:43;12.13;;;7.73;;
76846;SDS011;65813;49.546;8.644;2024-01-30T08:02:44;11.32;;;6.85;;
76846;SDS011;65813;49.546;8.644;2024-01-30T08:06:44;10.57;;;6.17;;
76846;SDS011;65813;49.546;8.644;2024-01-30T08:10:45;10.83;;;6.23;;
76846;SDS011;65813;49.546;8.644;2024-01-30T08:14:46;11.67;;;6.07;;
76846;SDS011;65813;49.546;8.644;2024-01-30T08:18:46;10.23;;;5.82;;
76846;SDS011;65813;49.546;8.644;2024-01-30T08:22:47;10.03;;;5.53;;
76846;SDS011;65813;49.546;8.644;2024-01-30T08:26:47;10.77;;;6.47;;
76846;SDS011;65813;49.546;8.644;2024-01-30T08:30:47;11.23;;;5.70;;
76846;SDS011;65813;49.546;8.644;2024-01-30T08:34:48;11.03;;;5.97;;
76846;SDS011;65813;49.546;8.644;2024-01-30T08:38:48;11.60;;;5.93;;
76846;SDS011;65813;49.546;8.644;2024-01-30T08:42:48;10.18;;;5.18;;
76846;SDS011;65813;49.546;8.644;2024-01-30T08:46:49;9.13;;;5.80;;
76846;SDS011;65813;49.546;8.644;2024-01-30T08:50:50;9.93;;;6.15;;
76846;SDS011;65813;49.546;8.644;2024-01-30T08:54:50;10.85;;;5.78;;
76846;SDS011;65813;49.546;8.644;2024-01-30T08:58:50;8.77;;;5.00;;
76846;SDS011;65813;49.546;8.644;2024-01-30T09:02:52;9.05;;;4.55;;
76846;SDS011;65813;49.546;8.644;2024-01-30T09:06:52;10.30;;;5.83;;
76846;SDS011;65813;49.546;8.644;2024-01-30T09:10:52;10.67;;;5.97;;
76846;SDS011;65813;49.546;8.644;2024-01-30T09:14:52;10.20;;;5.97;;
76846;SDS011;65813;49.546;8.644;2024-01-30T09:18:53;9.88;;;6.22;;
76846;SDS011;65813;49.546;8.644;2024-01-30T09:22:53;10.20;;;5.60;;
76846;SDS011;65813;49.546;8.644;2024-01-30T09:26:54;10.60;;;5.47;;
76846;SDS011;65813;49.546;8.644;2024-01-30T09:30:54;10.63;;;5.57;;
76846;SDS011;65813;49.546;8.644;2024-01-30T09:34:54;11.73;;;5.53;;
76846;SDS011;65813;49.546;8.644;2024-01-30T09:38:55;9.07;;;5.50;;
76846;SDS011;65813;49.546;8.644;2024-01-30T09:42:55;9.83;;;5.97;;
76846;SDS011;65813;49.546;8.644;2024-01-30T09:46:56;10.27;;;5.65;;
76846;SDS011;65813;49.546;8.644;2024-01-30T09:50:58;8.93;;;4.93;;
76846;SDS011;65813;49.546;8.644;2024-01-30T09:54:59;7.87;;;5.13;;
76846;SDS011;65813;49.546;8.644;2024-01-30T09:59:01;10.43;;;5.32;;
76846;SDS011;65813;49.546;8.644;2024-01-30T10:03:01;7.73;;;5.10;;
76846;SDS011;65813;49.546;8.644;2024-01-30T10:07:02;9.50;;;6.18;;
76846;SDS011;65813;49.546;8.644;2024-01-30T10:11:02;12.43;;;5.55;;
76846;SDS011;65813;49.546;8.644;2024-01-30T10:15:06;11.38;;;5.63;;
76846;SDS011;65813;49.546;8.644;2024-01-30T10:19:08;10.20;;;5.43;;
76846;SDS011;65813;49.546;8.644;2024-01-30T10:23:08;8.43;;;5.43;;
76846;SDS011;65813;49.546;8.644;2024-01-30T10:27:09;10.60;;;5.78;;
76846;SDS011;65813;49.546;8.644;2024-01-30T10:31:09;7.20;;;4.53;;
76846;SDS011;65813;49.546;8.644;2024-01-30T10:35:09;9.27;;;5.80;;
76846;SDS011;65813;49.546;8.644;2024-01-30T10:39:10;8.17;;;5.27;;
76846;SDS011;65813;49.546;8.644;2024-01-30T10:43:14;9.98;;;5.00;;
76846;SDS011;65813;49.546;8.644;2024-01-30T10:47:18;9.50;;;5.45;;
76846;SDS011;65813;49.546;8.644;2024-01-30T10:51:26;9.88;;;4.88;;
76846;SDS011;65813;49.546;8.644;2024-01-30T10:55:27;9.65;;;4.85;;
76846;SDS011;65813;49.546;8.644;2024-01-30T10:59:29;9.07;;;5.38;;
76846;SDS011;65813;49.546;8.644;2024-01-30T11:03:32;9.77;;;4.88;;
76846;SDS011;65813;49.546;8.644;2024-01-30T11:07:35;7.57;;;4.68;;
76846;SDS011;65813;49.546;8.644;2024-01-30T11:12:12;8.38;;;5.20;;
76846;SDS011;65813;49.546;8.644;2024-01-30T11:16:06;9.30;;;5.18;;
76846;SDS011;65813;49.546;8.644;2024-01-30T11:20:09;8.93;;;4.47;;
76846;SDS011;65813;49.546;8.644;2024-01-30T11:24:10;9.07;;;4.18;;
76846;SDS011;65813;49.546;8.644;2024-01-30T11:28:14;6.82;;;3.88;;
76846;SDS011;65813;49.546;8.644;2024-01-30T11:32:22;7.47;;;4.53;;
76846;SDS011;65813;49.546;8.644;2024-01-30T11:36:25;9.48;;;4.93;;
76846;SDS011;65813;49.546;8.644;2024-01-30T11:40:29;9.52;;;5.07;;
76846;SDS011;65813;49.546;8.644;2024-01-30T11:44:33;8.00;;;4.88;;
76846;SDS011;65813;49.546;8.644;2024-01-30T11:48:33;9.30;;;5.05;;
76846;SDS011;65813;49.546;8.644;2024-01-30T11:52:34;9.63;;;4.68;;
76846;SDS011;65813;49.546;8.644;2024-01-30T11:56:34;11.05;;;5.32;;
76846;SDS011;65813;49.546;8.644;2024-01-30T12:00:37;14.23;;;4.82;;
76846;SDS011;65813;49.546;8.644;2024-01-30T12:04:37;10.73;;;5.73;;
76846;SDS011;65813;49.546;8.644;2024-01-30T12:08:37;10.37;;;5.10;;
76846;SDS011;65813;49.546;8.644;2024-01-30T12:12:38;8.50;;;5.63;;
76846;SDS011;65813;49.546;8.644;2024-01-30T12:16:38;10.52;;;5.22;;
76846;SDS011;65813;49.546;8.644;2024-01-30T12:20:39;12.32;;;6.03;;
76846;SDS011;65813;49.546;8.644;2024-01-30T12:24:39;11.10;;;6.10;;
76846;SDS011;65813;49.546;8.644;2024-01-30T12:28:48;11.10;;;5.00;;
76846;SDS011;65813;49.546;8.644;2024-01-30T12:32:52;10.82;;;5.55;;
76846;SDS011;65813;49.546;8.644;2024-01-30T12:36:52;10.70;;;5.63;;
76846;SDS011;65813;49.546;8.644;2024-01-30T12:40:56;9.23;;;3.80;;
76846;SDS011;65813;49.546;8.644;2024-01-30T12:44:57;9.30;;;5.35;;
76846;SDS011;65813;49.546;8.644;2024-01-30T12:48:58;10.52;;;5.78;;
76846;SDS011;65813;49.546;8.644;2024-01-30T12:52:58;10.23;;;6.30;;
76846;SDS011;65813;49.546;8.644;2024-01-30T12:56:59;8.83;;;4.93;;
76846;SDS011;65813;49.546;8.644;2024-01-30T13:00:59;10.23;;;5.13;;
76846;SDS011;65813;49.546;8.644;2024-01-30T13:04:59;9.17;;;5.40;;
76846;SDS011;65813;49.546;8.644;2024-01-30T13:09:01;10.68;;;5.93;;
76846;SDS011;65813;49.546;8.644;2024-01-30T13:13:02;7.82;;;4.85;;
76846;SDS011;65813;49.546;8.644;2024-01-30T13:17:03;9.57;;;5.57;;
76846;SDS011;65813;49.546;8.644;2024-01-30T13:21:04;9.63;;;5.18;;
76846;SDS011;65813;49.546;8.644;2024-01-30T13:25:05;9.97;;;5.80;;
76846;SDS011;65813;49.546;8.644;2024-01-30T13:29:05;10.63;;;5.43;;
76846;SDS011;65813;49.546;8.644;2024-01-30T13:33:06;11.37;;;5.67;;
76846;SDS011;65813;49.546;8.644;2024-01-30T13:37:06;10.57;;;6.28;;
76846;SDS011;65813;49.546;8.644;2024-01-30T13:41:06;9.27;;;5.53;;
76846;SDS011;65813;49.546;8.644;2024-01-30T13:45:07;10.30;;;5.68;;
76846;SDS011;65813;49.546;8.644;2024-01-30T13:49:09;7.75;;;4.72;;
76846;SDS011;65813;49.546;8.644;2024-01-30T13:53:10;10.07;;;5.03;;
76846;SDS011;65813;49.546;8.644;2024-01-30T13:57:10;9.10;;;5.43;;
76846;SDS011;65813;49.546;8.644;2024-01-30T14:01:11;9.32;;;4.68;;
76846;SDS011;65813;49.546;8.644;2024-01-30T14:05:11;9.57;;;5.97;;
76846;SDS011;65813;49.546;8.644;2024-01-30T14:09:12;10.25;;;5.28;;
76846;SDS011;65813;49.546;8.644;2024-01-30T14:13:14;12.30;;;5.82;;
76846;SDS011;65813;49.546;8.644;2024-01-30T14:17:15;8.13;;;4.83;;
76846;SDS011;65813;49.546;8.644;2024-01-30T14:21:15;9.10;;;5.53;;
76846;SDS011;65813;49.546;8.644;2024-01-30T14:25:15;8.97;;;5.17;;
76846;SDS011;65813;49.546;8.644;2024-01-30T14:29:16;9.25;;;5.32;;
76846;SDS011;65813;49.546;8.644;2024-01-30T14:33:17;9.60;;;5.23;;
76846;SDS011;65813;49.546;8.644;2024-01-30T14:37:17;7.47;;;4.23;;
76846;SDS011;65813;49.546;8.644;2024-01-30T14:41:18;8.07;;;4.50;;
76846;SDS011;65813;49.546;8.644;2024-01-30T14:45:18;7.83;;;4.50;;
76846;SDS011;65813;49.546;8.644;2024-01-30T14:49:18;9.23;;;5.28;;
76846;SDS011;65813;49.546;8.644;2024-01-30T14:53:19;7.03;;;5.05;;
76846;SDS011;65813;49.546;8.644;2024-01-30T14:57:20;8.60;;;4.72;;
76846;SDS011;65813;49.546;8.644;2024-01-30T15:01:21;9.50;;;4.78;;
76846;SDS011;65813;49.546;8.644;2024-01-30T15:05:21;9.30;;;5.90;;
76846;SDS011;65813;49.546;8.644;2024-01-30T15:09:22;7.00;;;4.00;;
76846;SDS011;65813;49.546;8.644;2024-01-30T15:13:22;6.80;;;4.70;;
76846;SDS011;65813;49.546;8.644;2024-01-30T15:17:22;10.20;;;4.68;;
76846;SDS011;65813;49.546;8.644;2024-01-30T15:21:23;10.33;;;5.30;;
76846;SDS011;65813;49.546;8.644;2024-01-30T15:25:23;8.38;;;4.68;;
76846;SDS011;65813;49.546;8.644;2024-01-30T15:29:24;9.63;;;4.40;;
76846;SDS011;65813;49.546;8.644;2024-01-30T15:33:24;7.15;;;4.05;;
76846;SDS011;65813;49.546;8.644;2024-01-30T15:37:24;6.60;;;4.23;;
76846;SDS011;65813;49.546;8.644;2024-01-30T15:41:25;8.90;;;4.27;;
76846;SDS011;65813;49.546;8.644;2024-01-30T15:45:25;7.73;;;4.33;;
76846;SDS011;65813;49.546;8.644;2024-01-30T15:49:25;8.47;;;4.50;;
76846;SDS011;65813;49.546;8.644;2024-01-30T15:53:26;6.67;;;3.83;;
76846;SDS011;65813;49.546;8.644;2024-01-30T15:57:26;7.25;;;3.58;;
76846;SDS011;65813;49.546;8.644;2024-01-30T16:01:27;8.60;;;4.43;;
76846;SDS011;65813;49.546;8.644;2024-01-30T16:05:27;7.83;;;4.10;;
76846;SDS011;65813;49.546;8.644;2024-01-30T16:09:27;8.10;;;4.00;;
76846;SDS011;65813;49.546;8.644;2024-01-30T16:13:28;8.17;;;4.00;;
76846;SDS011;65813;49.546;8.644;2024-01-30T16:17:29;8.65;;;4.55;;
76846;SDS011;65813;49.546;8.644;2024-01-30T16:21:30;9.75;;;4.75;;
76846;SDS011;65813;49.546;8.644;2024-01-30T16:25:31;9.17;;;4.17;;
76846;SDS011;65813;49.546;8.644;2024-01-30T16:29:31;7.73;;;4.40;;
76846;SDS011;65813;49.546;8.644;2024-01-30T16:33:31;8.00;;;4.55;;
76846;SDS011;65813;49.546;8.644;2024-01-30T16:37:32;8.45;;;5.13;;
76846;SDS011;65813;49.546;8.644;2024-01-30T16:41:34;7.13;;;4.77;;
76846;SDS011;65813;49.546;8.644;2024-01-30T16:45:34;9.80;;;4.78;;
76846;SDS011;65813;49.546;8.644;2024-01-30T16:49:34;8.53;;;4.70;;
76846;SDS011;65813;49.546;8.644;2024-01-30T16:53:35;9.07;;;4.38;;
76846;SDS011;65813;49.546;8.644;2024-01-30T16:57:36;8.68;;;4.85;;
76846;SDS011;65813;49.546;8.644;2024-01-30T17:01:36;10.33;;;4.90;;
76846;SDS011;65813;49.546;8.644;2024-01-30T17:05:36;8.93;;;5.00;;
76846;SDS011;65813;49.546;8.644;2024-01-30T17:09:37;7.97;;;4.60;;
76846;SDS011;65813;49.546;8.644;2024-01-30T17:13:37;8.50;;;4.77;;
76846;SDS011;65813;49.546;8.644;2024-01-30T17:17:38;7.18;;;4.68;;
76846;SDS011;65813;49.546;8.644;2024-01-30T17:21:38;12.60;;;5.47;;
76846;SDS011;65813;49.546;8.644;2024-01-30T17:25:38;9.50;;;5.73;;
76846;SDS011;65813;49.546;8.644;2024-01-30T17:29:39;11.07;;;6.68;;
76846;SDS011;65813;49.546;8.644;2024-01-30T17:33:39;11.67;;;7.20;;
76846;SDS011;65813;49.546;8.644;2024-01-30T17:37:41;10.88;;;6.07;;
76846;SDS011;65813;49.546;8.644;2024-01-30T17:41:42;9.77;;;5.97;;
76846;SDS011;65813;49.546;8.644;2024-01-30T17:45:42;11.03;;;5.37;;
76846;SDS011;65813;49.546;8.644;2024-01-30T17:49:43;13.52;;;8.23;;
76846;SDS011;65813;49.546;8.644;2024-01-30T17:53:43;13.10;;;8.10;;
76846;SDS011;65813;49.546;8.644;2024-01-30T17:57:44;11.02;;;6.97;;
76846;SDS011;65813;49.546;8.644;2024-01-30T18:01:48;11.50;;;5.27;;
76846;SDS011;65813;49.546;8.644;2024-01-30T18:05:48;8.93;;;5.57;;
76846;SDS011;65813;49.546;8.644;2024-01-30T18:09:48;10.43;;;5.70;;
76846;SDS011;65813;49.546;8.644;2024-01-30T18:13:49;10.90;;;6.30;;
76846;SDS011;65813;49.546;8.644;2024-01-30T18:17:51;12.23;;;7.18;;
76846;SDS011;65813;49.546;8.644;2024-01-30T18:21:52;11.80;;;6.60;;
76846;SDS011;65813;49.546;8.644;2024-01-30T18:25:52;13.40;;;6.20;;
76846;SDS011;65813;49.546;8.644;2024-01-30T18:29:59;13.52;;;6.78;;
76846;SDS011;65813;49.546;8.644;2024-01-30T18:34:00;12.13;;;6.70;;
76846;SDS011;65813;49.546;8.644;2024-01-30T18:38:00;10.30;;;5.47;;
76846;SDS011;65813;49.546;8.644;2024-01-30T18:42:02;10.38;;;6.53;;
76846;SDS011;65813;49.546;8.644;2024-01-30T18:46:02;10.88;;;5.80;;
76846;SDS011;65813;49.546;8.644;2024-01-30T18:50:04;10.07;;;5.80;;
76846;SDS011;65813;49.546;8.644;2024-01-30T18:54:05;11.10;;;6.80;;
76846;SDS011;65813;49.546;8.644;2024-01-30T18:58:06;10.27;;;5.90;;
76846;SDS011;65813;49.546;8.644;2024-01-30T19:02:06;12.65;;;6.55;;
76846;SDS011;65813;49.546;8.644;2024-01-30T19:06:06;12.13;;;6.57;;
76846;SDS011;65813;49.546;8.644;2024-01-30T19:10:08;10.87;;;6.83;;
76846;SDS011;65813;49.546;8.644;2024-01-30T19:14:09;10.52;;;6.07;;
76846;SDS011;65813;49.546;8.644;2024-01-30T19:18:10;12.48;;;7.13;;
76846;SDS011;65813;49.546;8.644;2024-01-30T19:22:10;11.23;;;6.82;;
76846;SDS011;65813;49.546;8.644;2024-01-30T19:26:11;13.52;;;6.90;;
76846;SDS011;65813;49.546;8.644;2024-01-30T19:30:11;10.43;;;5.97;;
76846;SDS011;65813;49.546;8.644;2024-01-30T19:34:12;11.50;;;5.35;;
76846;SDS011;65813;49.546;8.644;2024-01-30T19:38:13;11.40;;;6.63;;
76846;SDS011;65813;49.546;8.644;2024-01-30T19:42:14;8.68;;;5.53;;
76846;SDS011;65813;49.546;8.644;2024-01-30T19:46:14;10.60;;;6.07;;
76846;SDS011;65813;49.546;8.644;2024-01-30T19:50:15;11.30;;;6.00;;
76846;SDS011;65813;49.546;8.644;2024-01-30T19:54:17;10.15;;;6.63;;
76846;SDS011;65813;49.546;8.644;2024-01-30T19:58:17;11.50;;;6.32;;
76846;SDS011;65813;49.546;8.644;2024-01-30T20:02:18;11.05;;;6.22;;
76846;SDS011;65813;49.546;8.644;2024-01-30T20:06:20;13.65;;;6.90;;
76846;SDS011;65813;49.546;8.644;2024-01-30T20:10:21;11.18;;;6.50;;
76846;SDS011;65813;49.546;8.644;2024-01-30T20:14:21;13.03;;;7.10;;
76846;SDS011;65813;49.546;8.644;2024-01-30T20:18:22;13.20;;;7.73;;
76846;SDS011;65813;49.546;8.644;2024-01-30T20:22:22;13.48;;;6.90;;
76846;SDS011;65813;49.546;8.644;2024-01-30T20:26:23;12.13;;;7.10;;
76846;SDS011;65813;49.546;8.644;2024-01-30T20:30:24;12.50;;;7.07;;
76846;SDS011;65813;49.546;8.644;2024-01-30T20:34:24;13.60;;;8.13;;
76846;SDS011;65813;49.546;8.644;2024-01-30T20:38:25;13.25;;;6.72;;
76846;SDS011;65813;49.546;8.644;2024-01-30T20:42:25;14.77;;;8.87;;
76846;SDS011;65813;49.546;8.644;2024-01-30T20:46:25;13.60;;;7.97;;
76846;SDS011;65813;49.546;8.644;2024-01-30T20:50:26;14.83;;;8.33;;
76846;SDS011;65813;49.546;8.644;2024-01-30T20:54:26;12.95;;;8.25;;
76846;SDS011;65813;49.546;8.644;2024-01-30T20:58:27;14.53;;;7.77;;
76846;SDS011;65813;49.546;8.644;2024-01-30T21:02:28;13.80;;;8.13;;
76846;SDS011;65813;49.546;8.644;2024-01-30T21:06:28;16.52;;;9.05;;
76846;SDS011;65813;49.546;8.644;2024-01-30T21:10:29;15.60;;;8.93;;
76846;SDS011;65813;49.546;8.644;2024-01-30T21:14:30;14.43;;;8.40;;
76846;SDS011;65813;49.546;8.644;2024-01-30T21:18:30;14.15;;;8.35;;
76846;SDS011;65813;49.546;8.644;2024-01-30T21:22:31;15.53;;;8.83;;
76846;SDS011;65813;49.546;8.644;2024-01-30T21:26:31;14.27;;;8.13;;
76846;SDS011;65813;49.546;8.644;2024-01-30T21:30:31;13.97;;;7.70;;
76846;SDS011;65813;49.546;8.644;2024-01-30T21:34:33;11.85;;;7.85;;
76846;SDS011;65813;49.546;8.644;2024-01-30T21:38:33;15.02;;;8.93;;
76846;SDS011;65813;49.546;8.644;2024-01-30T21:42:35;12.07;;;8.02;;
76846;SDS011;65813;49.546;8.644;2024-01-30T21:46:36;13.07;;;8.52;;
76846;SDS011;65813;49.546;8.644;2024-01-30T21:50:36;13.20;;;8.33;;
76846;SDS011;65813;49.546;8.644;2024-01-30T21:54:37;15.40;;;8.30;;
76846;SDS011;65813;49.546;8.644;2024-01-30T21:58:37;12.88;;;7.38;;
76846;SDS011;65813;49.546;8.644;2024-01-30T22:02:38;13.50;;;8.27;;
76846;SDS011;65813;49.546;8.644;2024-01-30T22:06:38;13.50;;;8.13;;
76846;SDS011;65813;49.546;8.644;2024-01-30T22:10:38;15.55;;;8.27;;
76846;SDS011;65813;49.546;8.644;2024-01-30T22:14:39;16.23;;;7.67;;
